AirNav   ProFlight Series 2 Aviation Headset
 
 633 users online  

9MI8 Jott Heliport
Utica, Michigan, USA

GOING TO UTICA?


FAA INFORMATION EFFECTIVE 18 JUNE 2020

Location

FAA Identifier: 9MI8
Lat/Long: 42-39-39.1170N 082-59-46.7380W
42-39.651950N 082-59.778967W
42.6608658,-82.9963161
(estimated)
Elevation: 630 ft. / 192 m (estimated)
Variation: 06W (1985)
From city: 4 miles N of UTICA, MI
Time zone: UTC -4 (UTC -5 during Standard Time)
Zip code: 48315

Heliport Operations

Heliport use: Private use, PERSONAL USE.
Activation date: 10/1984
Control tower: no
ARTCC: CLEVELAND CENTER
FSS: LANSING FLIGHT SERVICE STATION
Attendance: UNATNDD
Wind indicator: yes
Segmented circle: no

Heliport Communications

WX AWOS-3 at VLL (11 nm SW): 119.475 (248-288-4649)
WX ASOS at DET (15 nm S): PHONE 313-371-9696
WX ASOS at PTK (19 nm W): 125.025 (248-886-8551)

Nearby radio navigation aids

VOR radial/distance  VOR name  Freq  Var
SVMr063/30.4SALEM VORTAC114.3003W
DXOr037/31.5DETROIT VOR/DME113.4006W
FNTr125/37.8FLINT VORTAC116.9006W

 
NDB name  Hdg/Dist  Freq  Var  ID
GROSSE ILE019/34.341907WRYS .-. -.-- ...

Heliport Services

Runway Information

Helipad H1

Dimensions: 30 x 30 ft. / 9 x 9 m
Surface: concrete
Traffic pattern: leftleft

Heliport Ownership and Management from official FAA records

Ownership: Privately-owned
Owner: JOHN BERNARD VOHS
49567 SCHOENHERR
SHELBY TWP, MI 48315
Phone 586-219-9260
Manager: JOHN BERNARD VOHS
49567 SCHOENHERR
SHELBY TWP, MI 48315
Phone 586-219-9260

Heliport Operational Statistics

Aircraft based on the field: 1
Helicopters: 1
    

Additional Remarks

FOR CD CTC CLEVELAND ARTCC AT 440-774-0490.

Instrument Procedures

There are no published instrument procedures at 9MI8.

Some nearby airports with instrument procedures:

57D - Ray Community Airport (7 nm NE)
KMTC - Selfridge Air National Guard Base (8 nm E)
D98 - Romeo State Airport (8 nm N)
KVLL - Oakland/Troy Airport (11 nm SW)
KDET - Coleman A Young Municipal Airport (15 nm S)
KPTK - Oakland County International Airport (19 nm W)
 
Loc | Ops | Rwys | IFR | FBO | Links
Com | Nav | Svcs | Stats | Notes
Area around 9MI8 (Jott Heliport)
 
Road maps at: MapQuest Bing Google
 
Aerial photo
No photo
 
Sectional chart

 
Airport distance calculator
Flying to Jott Heliport? Find the distance to fly.

From to 9MI8

Sunrise and sunset
Times for 11-Jul-2020
 Local
(UTC-4)
 Zulu
(UTC)
Morning civil twilight05:3209:32
Sunrise06:0610:06
Sunset21:0901:09
Evening civil twilight21:4301:43

Current date and time
Zulu (UTC)  11-Jul-2020 04:07:57
Local (UTC-4)  11-Jul-2020 00:07:57
 
METAR
KMTC 
8nm E 
110356Z AUTO 31008KT 10SM RA FEW009 FEW070 SCT110 23/23 A2970 RMK AO2 RAB42 TSE11 SLP057 P0002 T02260226 $
KVLL 
11nm SW 
110355Z AUTO 31007KT 10SM -RA SCT009 BKN042 OVC120 21/21 A2975 RMK AO2 T02080206
KDET 
16nm S 
110353Z 33009KT 4SM RA BR FEW008 BKN075 OVC090 22/21 A2972 RMK AO2 LTG DSNT E SLP059 P0020 T02170206
KPTK 
19nm W 
110353Z 31010KT 10SM -RA BKN010 BKN029 OVC044 21/19 A2975 RMK AO2 SLP068 LAST P0010 T02060194
TAF
KMTC 
8nm E 
110100Z 1101/1207 30006KT 9000 -SHRA BKN020 QNH2966INS TEMPO 1101/1107 29020G25KT 8000 -TSRA OVC010CB BECMG 1108/1109 31009KT 9000 BR OVC015 QNH2969INS BECMG 1112/1113 30015G20KT 9999 NSW SCT020 BKN025 QNH2975INS BECMG 1115/1116 31020G25KT 9999 FEW030 QNH2977INS BECMG 1200/1201 32009KT 9999 SCT040 BKN050 QNH2979INS TX27/1121Z TN19/1111Z LAST NO AMDS AFT 1103 NEXT 1109
KDET 
16nm S 
102049Z 1021/1118 08006KT P6SM SCT045 BKN100 FM102300 24006KT 5SM SHRA VCTS SCT020 BKN030 OVC050CB FM110300 31011KT P6SM -SHRA BKN025 OVC050 TEMPO 1103/1107 3SM SHRA FM111000 30010KT P6SM SCT050 FM111600 30014KT P6SM SCT050 BKN060
KPTK 
19nm W 
102049Z 1021/1118 08006KT P6SM SCT045 BKN100 FM102300 24006KT 5SM SHRA VCTS SCT020 BKN030 OVC050CB FM110200 32010KT 5SM SHRA BKN020 OVC040 FM110900 31009KT P6SM SCT040 FM111600 30014KT P6SM BKN050
NOTAMs
Click for the latest NOTAMs
NOTAMs are issued by the DoD/FAA and will open in a separate window not controlled by AirNav.

 

 
 

Would you like to see your business listed on this page?

 If your business provides an interesting product or service to pilots, flight crews, aircraft, or users of the Jott Heliport, you should consider listing it here.  To start the listing process, click on the button below
 
Add a business
 

Other Pages about Jott Heliport

Update a link
 
Copyright © AirNav, LLC. All rights reserved. Privacy Policy  Contact